createdAt,value
2022-11-29T00:00:41.663Z,0.00
2022-11-29T00:01:41.633Z,0.00
2022-11-29T00:02:41.760Z,0.00
2022-11-29T00:03:41.614Z,0.00
2022-11-29T00:04:42.041Z,0.00
2022-11-29T00:05:41.605Z,0.00
2022-11-29T00:06:41.610Z,0.00
2022-11-29T00:07:41.645Z,0.00
2022-11-29T00:08:41.593Z,0.00
2022-11-29T00:09:41.572Z,0.00
2022-11-29T00:10:41.585Z,0.00
2022-11-29T00:11:41.564Z,0.00
2022-11-29T00:12:41.531Z,0.00
2022-11-29T00:13:41.508Z,0.00
2022-11-29T00:14:41.772Z,0.00
2022-11-29T00:15:41.503Z,0.00
2022-11-29T00:16:41.543Z,0.00
2022-11-29T00:17:41.475Z,0.00
2022-11-29T00:18:41.486Z,0.00
2022-11-29T00:19:41.445Z,0.00
2022-11-29T00:20:41.463Z,0.00
2022-11-29T00:21:41.426Z,0.00
2022-11-29T00:22:41.442Z,0.00
2022-11-29T00:23:41.417Z,0.00
2022-11-29T00:24:41.579Z,0.00
2022-11-29T00:25:41.394Z,0.00
2022-11-29T00:26:41.399Z,0.00
2022-11-29T00:27:41.364Z,0.00
2022-11-29T00:28:41.375Z,0.00
2022-11-29T00:29:41.349Z,0.00
2022-11-29T00:30:41.515Z,0.00
2022-11-29T00:31:41.371Z,0.00
2022-11-29T00:32:41.325Z,0.00
2022-11-29T00:33:41.296Z,0.00
2022-11-29T00:34:41.503Z,0.00
2022-11-29T00:35:41.282Z,0.00
2022-11-29T00:36:41.284Z,0.00
2022-11-29T00:37:41.253Z,0.00
2022-11-29T00:38:41.252Z,0.00
2022-11-29T00:39:41.229Z,0.00
2022-11-29T00:40:41.266Z,0.00
2022-11-29T00:41:41.209Z,0.00
2022-11-29T00:42:41.207Z,0.00
2022-11-29T00:43:41.174Z,0.00
2022-11-29T00:44:41.425Z,0.00
2022-11-29T00:45:41.251Z,0.00
2022-11-29T00:46:41.200Z,0.00
2022-11-29T00:47:41.143Z,0.00
2022-11-29T00:48:41.149Z,0.00
2022-11-29T00:49:41.134Z,0.00
2022-11-29T00:50:41.131Z,0.00
2022-11-29T00:51:41.113Z,0.00
2022-11-29T00:52:41.165Z,0.00
2022-11-29T00:53:41.081Z,0.00
2022-11-29T00:54:41.373Z,0.00
2022-11-29T00:55:41.054Z,0.00
2022-11-29T00:56:41.073Z,0.00
2022-11-29T00:57:41.062Z,0.00
2022-11-29T00:58:41.051Z,0.00
2022-11-29T00:59:41.039Z,0.00
2022-11-29T01:00:41.025Z,0.00
2022-11-29T01:01:41.090Z,0.00
2022-11-29T01:02:41.070Z,0.00
2022-11-29T01:03:41.002Z,0.00
2022-11-29T01:04:40.981Z,0.00
2022-11-29T01:05:40.974Z,0.00
2022-11-29T01:06:40.975Z,0.00
2022-11-29T01:07:40.983Z,0.00
2022-11-29T01:08:40.947Z,0.00
2022-11-29T01:09:40.952Z,0.00
2022-11-29T01:10:40.919Z,0.00
2022-11-29T01:11:40.895Z,0.00
2022-11-29T01:12:40.892Z,0.00
2022-11-29T01:13:40.911Z,0.00
2022-11-29T01:14:40.872Z,0.00
2022-11-29T01:15:40.889Z,0.00
2022-11-29T01:16:40.905Z,0.00
2022-11-29T01:17:40.865Z,0.00
2022-11-29T01:18:40.857Z,0.00
2022-11-29T01:19:42.357Z,0.00
2022-11-29T01:20:40.816Z,0.00
2022-11-29T01:21:40.809Z,0.00
2022-11-29T01:22:40.776Z,0.00
2022-11-29T01:23:40.797Z,0.00
2022-11-29T01:24:40.759Z,0.00
2022-11-29T01:25:40.764Z,0.00
2022-11-29T01:26:40.740Z,0.00
2022-11-29T01:27:40.725Z,0.00
2022-11-29T01:28:40.724Z,0.00
2022-11-29T01:29:40.699Z,0.00
2022-11-29T01:30:40.770Z,0.00
2022-11-29T01:31:40.676Z,0.00
2022-11-29T01:32:40.724Z,0.00
2022-11-29T01:33:40.658Z,0.00
2022-11-29T01:34:40.670Z,0.00
2022-11-29T01:35:40.644Z,0.00
2022-11-29T01:36:40.648Z,0.00
2022-11-29T01:37:40.601Z,0.00
2022-11-29T01:38:40.616Z,0.00
2022-11-29T01:39:40.594Z,0.00
2022-11-29T01:40:40.595Z,0.00
2022-11-29T01:41:40.579Z,0.00
2022-11-29T01:42:40.588Z,0.00
2022-11-29T01:43:40.550Z,0.00
2022-11-29T01:44:40.549Z,0.00
2022-11-29T01:45:40.561Z,0.00
2022-11-29T01:46:40.584Z,0.00
2022-11-29T01:47:40.495Z,0.00
2022-11-29T01:48:40.500Z,0.00
2022-11-29T01:49:40.480Z,0.00
2022-11-29T01:50:40.503Z,0.00
2022-11-29T01:51:40.485Z,0.00
2022-11-29T01:52:40.452Z,0.00
2022-11-29T01:53:40.463Z,0.00
2022-11-29T01:54:40.437Z,0.00
2022-11-29T01:55:40.511Z,0.00
2022-11-29T01:56:40.410Z,0.00
2022-11-29T01:57:40.437Z,0.00
2022-11-29T01:58:40.419Z,0.00
2022-11-29T01:59:40.393Z,0.00
2022-11-29T02:00:40.397Z,0.00
2022-11-29T02:01:40.414Z,0.00
2022-11-29T02:02:40.404Z,0.00
2022-11-29T02:03:40.323Z,0.00
2022-11-29T02:04:40.329Z,0.00
2022-11-29T02:05:40.305Z,0.00
2022-11-29T02:06:40.329Z,0.00
2022-11-29T02:07:40.318Z,0.00
2022-11-29T02:08:40.278Z,0.00
2022-11-29T02:09:40.253Z,0.00
2022-11-29T06:00:54.115Z,0.00
2022-11-29T06:01:55.155Z,0.00
2022-11-29T06:02:55.160Z,0.00
2022-11-29T06:03:55.105Z,0.00
2022-11-29T06:04:55.072Z,0.00
2022-11-29T06:05:55.118Z,0.00
2022-11-29T06:06:55.055Z,0.00
2022-11-29T06:07:55.106Z,0.00
2022-11-29T06:08:55.044Z,0.00
2022-11-29T06:09:59.179Z,0.00
2022-11-29T06:10:55.001Z,0.00
2022-11-29T06:11:55.011Z,0.00
2022-11-29T06:12:54.997Z,0.00
2022-11-29T06:13:55.021Z,0.00
2022-11-29T06:14:54.958Z,0.00
2022-11-29T06:15:55.002Z,0.00
2022-11-29T06:16:54.939Z,0.00
2022-11-29T06:17:54.938Z,0.00
2022-11-29T06:18:54.958Z,0.00
2022-11-29T06:19:54.918Z,0.00
2022-11-29T06:20:54.903Z,0.00
2022-11-29T06:21:54.919Z,0.00
2022-11-29T06:22:54.872Z,0.00
2022-11-29T06:23:54.885Z,0.00
2022-11-29T06:24:54.872Z,0.00
2022-11-29T06:25:58.324Z,0.00
2022-11-29T06:26:54.850Z,0.00
2022-11-29T06:27:54.842Z,0.00
2022-11-29T06:28:54.803Z,0.00
2022-11-29T06:29:54.858Z,0.00
2022-11-29T06:30:54.784Z,0.00
2022-11-29T06:31:54.803Z,0.00
2022-11-29T06:32:54.773Z,0.00
2022-11-29T06:33:54.874Z,0.00
2022-11-29T06:34:54.737Z,0.00
2022-11-29T06:35:54.774Z,0.00
2022-11-29T06:36:54.770Z,0.00
2022-11-29T06:37:54.679Z,1.00
2022-11-29T06:38:54.656Z,1.00
2022-11-29T06:39:54.681Z,1.00
2022-11-29T06:41:00.129Z,1.00
2022-11-29T06:41:54.642Z,2.00
2022-11-29T06:42:54.646Z,2.00
2022-11-29T06:43:54.631Z,2.00
2022-11-29T06:44:54.579Z,1.00
2022-11-29T06:45:54.632Z,1.00
2022-11-29T06:46:54.580Z,2.00
2022-11-29T06:47:54.569Z,2.00
2022-11-29T06:48:59.182Z,3.00
2022-11-29T06:49:54.547Z,7.00
2022-11-29T06:50:54.584Z,6.00
2022-11-29T06:51:54.519Z,6.00
2022-11-29T06:52:54.502Z,8.00
2022-11-29T06:53:54.494Z,8.00
2022-11-29T06:54:54.488Z,10.00
2022-11-29T06:55:54.486Z,11.00
2022-11-29T06:56:54.493Z,11.00
2022-11-29T06:57:54.469Z,14.00
2022-11-29T06:58:54.433Z,14.00
2022-11-29T06:59:54.430Z,18.00
2022-11-29T07:00:54.487Z,12.00
2022-11-29T07:01:54.467Z,17.00
2022-11-29T07:02:54.437Z,20.00
2022-11-29T07:03:54.407Z,23.00
2022-11-29T07:04:54.403Z,26.00
2022-11-29T07:05:54.355Z,29.00
2022-11-29T07:06:54.355Z,30.00
2022-11-29T07:07:54.407Z,29.00
2022-11-29T07:08:54.317Z,31.00
2022-11-29T07:09:54.333Z,36.00
2022-11-29T07:10:54.297Z,39.00
2022-11-29T07:11:54.302Z,42.00
2022-11-29T07:12:54.301Z,43.00
2022-11-29T07:13:54.345Z,43.00
2022-11-29T07:14:54.265Z,46.00
2022-11-29T07:15:54.359Z,49.00
2022-11-29T07:16:57.349Z,60.00
2022-11-29T07:17:54.269Z,59.00
2022-11-29T07:18:54.217Z,62.00
2022-11-29T07:19:54.226Z,66.00
2022-11-29T07:20:54.197Z,68.00
2022-11-29T07:21:54.201Z,64.00
2022-11-29T07:22:54.204Z,65.00
2022-11-29T07:23:54.182Z,65.00
2022-11-29T07:24:54.163Z,61.00
2022-11-29T07:25:54.170Z,62.00
2022-11-29T07:26:59.396Z,64.00
2022-11-29T07:27:54.155Z,59.00
2022-11-29T07:28:54.138Z,57.00
2022-11-29T07:29:54.111Z,61.00
2022-11-29T07:30:54.100Z,64.00
2022-11-29T07:31:54.170Z,65.00
2022-11-29T07:32:59.902Z,64.00
2022-11-29T07:33:54.077Z,65.00
2022-11-29T07:34:54.045Z,64.00
2022-11-29T07:35:54.047Z,66.00
2022-11-29T07:36:54.021Z,69.00
2022-11-29T07:37:54.043Z,75.00
2022-11-29T07:38:54.022Z,83.00
2022-11-29T07:39:54.036Z,85.00
2022-11-29T07:40:53.992Z,91.00
2022-11-29T07:41:53.986Z,93.00
2022-11-29T07:42:53.956Z,91.00
2022-11-29T07:43:53.969Z,95.00
2022-11-29T07:44:53.948Z,107.00
2022-11-29T07:45:53.977Z,111.00
2022-11-29T07:46:53.920Z,119.00
2022-11-29T07:47:53.919Z,120.00
2022-11-29T07:48:53.905Z,120.00
2022-11-29T07:49:53.894Z,124.00
2022-11-29T07:50:53.868Z,133.00
2022-11-29T07:51:53.882Z,134.00
2022-11-29T07:52:53.865Z,137.00
2022-11-29T07:53:53.854Z,128.00
2022-11-29T07:54:53.850Z,128.00
2022-11-29T07:55:53.847Z,127.00
2022-11-29T07:56:53.811Z,133.00
2022-11-29T07:57:53.826Z,130.00
2022-11-29T07:58:53.893Z,126.00
2022-11-29T07:59:53.788Z,125.00
2022-11-29T08:00:53.839Z,129.00
2022-11-29T08:01:53.763Z,124.00
2022-11-29T08:02:53.740Z,118.00
2022-11-29T08:03:53.756Z,120.00
2022-11-29T08:04:53.728Z,113.00
2022-11-29T08:05:53.756Z,118.00
2022-11-29T08:06:53.713Z,123.00
2022-11-29T08:07:53.783Z,126.00
2022-11-29T08:08:53.675Z,129.00
2022-11-29T08:09:53.696Z,125.00
2022-11-29T08:10:53.693Z,124.00
2022-11-29T08:11:53.671Z,125.00
2022-11-29T08:12:53.644Z,126.00
2022-11-29T08:13:53.639Z,129.00
2022-11-29T08:14:53.615Z,127.00
2022-11-29T08:15:53.645Z,124.00
2022-11-29T08:16:53.608Z,122.00
2022-11-29T08:17:53.621Z,126.00
2022-11-29T08:18:53.575Z,130.00
2022-11-29T08:19:53.569Z,135.00
2022-11-29T08:20:53.562Z,141.00
2022-11-29T08:21:53.559Z,138.00
2022-11-29T08:22:53.533Z,141.00
2022-11-29T08:23:53.572Z,139.00
2022-11-29T08:24:53.536Z,137.00
2022-11-29T08:25:53.536Z,141.00
2022-11-29T08:26:53.476Z,145.00
2022-11-29T08:27:53.490Z,152.00
2022-11-29T08:28:53.464Z,156.00
2022-11-29T08:29:53.623Z,165.00
2022-11-29T08:30:53.448Z,166.00
2022-11-29T08:31:53.690Z,167.00
2022-11-29T08:32:53.413Z,168.00
2022-11-29T08:33:53.434Z,166.00
2022-11-29T08:34:53.404Z,165.00
2022-11-29T08:35:53.426Z,161.00
2022-11-29T08:36:53.387Z,160.00
2022-11-29T08:37:53.411Z,164.00
2022-11-29T08:39:00.080Z,169.00
2022-11-29T08:39:53.370Z,179.00
2022-11-29T08:40:53.327Z,188.00
2022-11-29T08:41:53.345Z,197.00
2022-11-29T08:42:53.311Z,191.00
2022-11-29T08:43:53.336Z,186.00
2022-11-29T08:44:53.296Z,185.00
2022-11-29T08:45:53.350Z,178.00
2022-11-29T08:46:53.290Z,179.00
2022-11-29T08:47:53.291Z,189.00
2022-11-29T08:48:53.252Z,197.00
2022-11-29T08:49:53.275Z,206.00
2022-11-29T08:50:53.225Z,209.00
2022-11-29T08:51:53.239Z,212.00
2022-11-29T08:52:53.208Z,225.00
2022-11-29T08:53:53.233Z,219.00
2022-11-29T08:54:53.219Z,211.00
2022-11-29T08:55:53.187Z,208.00
2022-11-29T08:57:37.277Z,202.00
2022-11-29T08:57:53.173Z,197.00
2022-11-29T08:58:53.140Z,203.00
2022-11-29T08:59:53.167Z,206.00
2022-11-29T09:00:53.203Z,208.00
2022-11-29T09:01:53.189Z,202.00
2022-11-29T09:02:53.108Z,201.00
2022-11-29T09:03:53.100Z,198.00
2022-11-29T09:04:53.078Z,197.00
2022-11-29T09:05:53.087Z,198.00
2022-11-29T09:06:53.085Z,194.00
2022-11-29T09:07:53.098Z,197.00
2022-11-29T09:08:53.058Z,203.00
2022-11-29T09:09:53.044Z,218.00
2022-11-29T09:10:53.034Z,243.00
2022-11-29T09:11:53.024Z,253.00
2022-11-29T09:12:52.990Z,251.00
2022-11-29T09:13:52.997Z,248.00
2022-11-29T09:14:53.001Z,241.00
2022-11-29T09:15:52.983Z,235.00
2022-11-29T09:16:53.026Z,229.00
2022-11-29T09:17:52.992Z,225.00
2022-11-29T09:18:52.927Z,220.00
2022-11-29T09:19:52.931Z,226.00
2022-11-29T09:20:52.920Z,238.00
2022-11-29T09:21:52.926Z,248.00
2022-11-29T09:22:52.893Z,242.00
2022-11-29T09:23:52.913Z,238.00
2022-11-29T09:24:52.862Z,267.00
2022-11-29T09:25:52.873Z,291.00
2022-11-29T09:26:52.854Z,285.00
2022-11-29T09:27:52.871Z,272.00
2022-11-29T09:28:52.833Z,282.00
2022-11-29T09:29:52.830Z,281.00
2022-11-29T09:30:52.811Z,273.00
2022-11-29T09:31:52.872Z,296.00
2022-11-29T09:32:52.793Z,317.00
2022-11-29T09:33:52.767Z,313.00
2022-11-29T09:34:52.781Z,328.00
2022-11-29T09:35:52.786Z,351.00
2022-11-29T09:36:52.795Z,380.00
2022-11-29T09:37:52.740Z,395.00
2022-11-29T09:38:52.732Z,396.00
2022-11-29T09:39:52.710Z,395.00
2022-11-29T09:40:52.718Z,377.00
2022-11-29T09:41:52.677Z,317.00
2022-11-29T09:42:52.720Z,329.00
2022-11-29T09:43:52.660Z,325.00
2022-11-29T09:44:52.680Z,297.00
2022-11-29T09:45:52.668Z,281.00
2022-11-29T09:46:58.383Z,282.00
2022-11-29T09:47:52.624Z,263.00
2022-11-29T09:48:52.620Z,302.00
2022-11-29T09:49:52.605Z,332.00
2022-11-29T09:50:52.632Z,352.00
2022-11-29T09:51:52.577Z,324.00
2022-11-29T09:52:52.583Z,310.00
2022-11-29T09:53:52.576Z,295.00
2022-11-29T09:54:52.582Z,278.00
2022-11-29T09:55:52.541Z,271.00
2022-11-29T09:56:52.531Z,282.00
2022-11-29T09:57:52.525Z,325.00
2022-11-29T09:58:52.504Z,330.00
2022-11-29T09:59:52.504Z,306.00
2022-11-29T10:00:52.549Z,300.00
2022-11-29T10:01:52.563Z,333.00
2022-11-29T10:02:52.499Z,322.00
2022-11-29T10:03:52.440Z,305.00
2022-11-29T10:04:52.449Z,286.00
2022-11-29T10:05:52.470Z,275.00
2022-11-29T10:06:52.454Z,250.00
2022-11-29T10:07:52.432Z,237.00
2022-11-29T10:08:52.430Z,243.00
2022-11-29T10:09:52.419Z,270.00
2022-11-29T10:10:52.414Z,290.00
2022-11-29T10:11:52.370Z,307.00
2022-11-29T10:12:52.374Z,303.00
2022-11-29T10:13:52.334Z,297.00
2022-11-29T10:14:52.600Z,327.00
2022-11-29T10:15:52.327Z,361.00
2022-11-29T10:16:52.364Z,390.00
2022-11-29T10:17:52.312Z,383.00
2022-11-29T10:18:52.298Z,391.00
2022-11-29T10:19:52.286Z,404.00
2022-11-29T10:20:52.274Z,424.00
2022-11-29T10:21:52.243Z,430.00
2022-11-29T10:22:52.322Z,446.00
2022-11-29T10:23:52.272Z,468.00
2022-11-29T10:24:52.253Z,477.00
2022-11-29T10:25:52.223Z,481.00
2022-11-29T10:26:52.217Z,486.00
2022-11-29T10:27:52.211Z,506.00
2022-11-29T10:28:52.200Z,523.00
2022-11-29T10:29:52.177Z,521.00
2022-11-29T10:30:52.292Z,528.00
2022-11-29T10:31:52.142Z,542.00
2022-11-29T10:32:52.152Z,552.00
2022-11-29T10:33:52.123Z,570.00
2022-11-29T10:34:52.133Z,587.00
2022-11-29T10:35:52.125Z,612.00
2022-11-29T10:36:52.152Z,626.00
2022-11-29T10:38:14.426Z,644.00
2022-11-29T10:38:52.101Z,646.00
2022-11-29T10:39:52.051Z,636.00
2022-11-29T10:40:52.070Z,632.00
2022-11-29T10:41:52.097Z,633.00
2022-11-29T10:42:52.058Z,639.00
2022-11-29T10:43:52.035Z,652.00
2022-11-29T10:44:52.029Z,691.00
2022-11-29T10:45:52.051Z,692.00
2022-11-29T10:46:52.000Z,646.00
2022-11-29T10:47:51.967Z,605.00
2022-11-29T10:48:51.963Z,585.00
2022-11-29T10:49:51.946Z,609.00
2022-11-29T10:50:51.973Z,640.00
2022-11-29T10:51:51.940Z,656.00
2022-11-29T10:52:55.820Z,644.00
2022-11-29T10:53:51.907Z,633.00
2022-11-29T10:54:51.916Z,648.00
2022-11-29T10:55:51.910Z,706.00
2022-11-29T10:56:51.929Z,833.00
2022-11-29T10:57:51.881Z,875.00
2022-11-29T10:58:51.873Z,861.00
2022-11-29T10:59:51.864Z,755.00
2022-11-29T11:00:51.915Z,633.00
2022-11-29T11:01:51.889Z,587.00
2022-11-29T11:02:51.862Z,563.00
2022-11-29T11:03:53.121Z,543.00
2022-11-29T11:04:51.818Z,520.00
2022-11-29T11:05:51.852Z,471.00
2022-11-29T11:06:51.778Z,437.00
2022-11-29T11:07:51.788Z,408.00
2022-11-29T11:08:51.781Z,400.00
2022-11-29T11:09:51.739Z,410.00
2022-11-29T11:10:55.409Z,437.00
2022-11-29T11:11:51.715Z,482.00
2022-11-29T11:12:51.740Z,518.00
2022-11-29T11:13:51.717Z,546.00
2022-11-29T11:14:51.744Z,563.00
2022-11-29T11:15:51.711Z,539.00
2022-11-29T11:16:51.737Z,508.00
2022-11-29T11:17:51.646Z,485.00
2022-11-29T11:18:51.660Z,475.00
2022-11-29T11:19:51.638Z,474.00
2022-11-29T11:20:51.630Z,467.00
2022-11-29T11:21:51.621Z,460.00
2022-11-29T11:22:51.629Z,462.00
2022-11-29T11:23:51.579Z,472.00
2022-11-29T11:24:51.615Z,479.00
2022-11-29T11:25:51.553Z,477.00
2022-11-29T11:26:51.564Z,498.00
2022-11-29T11:27:51.579Z,516.00
2022-11-29T11:28:51.535Z,531.00
2022-11-29T11:29:51.517Z,526.00
2022-11-29T11:30:51.593Z,507.00
2022-11-29T11:31:51.521Z,523.00
2022-11-29T11:32:51.502Z,516.00
2022-11-29T11:33:51.476Z,457.00
2022-11-29T11:34:51.508Z,432.00
2022-11-29T11:35:51.453Z,477.00
2022-11-29T11:36:51.496Z,502.00
2022-11-29T11:37:51.466Z,463.00
2022-11-29T11:38:51.450Z,407.00
2022-11-29T11:39:51.447Z,468.00
2022-11-29T11:40:57.913Z,505.00
2022-11-29T11:41:51.389Z,432.00
2022-11-29T11:42:51.394Z,351.00
2022-11-29T11:43:51.405Z,381.00
2022-11-29T11:44:51.401Z,477.00
2022-11-29T11:45:51.384Z,592.00
2022-11-29T11:46:51.353Z,577.00
2022-11-29T11:47:51.324Z,488.00
2022-11-29T11:48:51.329Z,413.00
2022-11-29T11:49:51.326Z,327.00
2022-11-29T11:50:51.322Z,430.00
2022-11-29T11:51:51.280Z,688.00
2022-11-29T11:52:51.282Z,791.00
2022-11-29T11:53:51.335Z,742.00
2022-11-29T11:54:51.382Z,659.00
2022-11-29T11:55:51.247Z,551.00
2022-11-29T11:56:51.250Z,490.00
2022-11-29T11:57:51.246Z,536.00
2022-11-29T11:58:51.223Z,571.00
2022-11-29T11:59:51.205Z,615.00
2022-11-29T12:01:06.756Z,643.00
2022-11-29T12:01:51.218Z,650.00
2022-11-29T12:02:51.311Z,678.00
2022-11-29T12:03:51.147Z,582.00
2022-11-29T12:04:51.222Z,498.00
2022-11-29T12:05:51.127Z,480.00
2022-11-29T12:06:51.140Z,469.00
2022-11-29T12:08:08.171Z,496.00
2022-11-29T12:08:51.146Z,506.00
2022-11-29T12:09:51.091Z,546.00
2022-11-29T12:10:51.131Z,527.00
2022-11-29T12:11:51.087Z,482.00
2022-11-29T12:12:51.063Z,482.00
2022-11-29T12:13:51.046Z,456.00
2022-11-29T12:14:51.057Z,444.00
2022-11-29T12:15:51.097Z,488.00
2022-11-29T12:16:51.186Z,487.00
2022-11-29T12:17:51.044Z,416.00
2022-11-29T12:18:51.049Z,349.00
2022-11-29T12:19:50.987Z,336.00
2022-11-29T12:20:51.003Z,318.00
2022-11-29T12:21:50.963Z,334.00
2022-11-29T12:22:51.003Z,357.00
2022-11-29T12:23:50.952Z,383.00
2022-11-29T12:24:50.942Z,359.00
2022-11-29T12:25:51.011Z,315.00
2022-11-29T12:26:58.997Z,282.00
2022-11-29T12:27:50.895Z,282.00
2022-11-29T12:28:50.956Z,285.00
2022-11-29T12:29:50.891Z,292.00
2022-11-29T12:30:50.955Z,298.00
2022-11-29T12:31:50.863Z,347.00
2022-11-29T12:32:50.866Z,371.00
2022-11-29T12:33:50.849Z,358.00
2022-11-29T12:34:50.854Z,339.00
2022-11-29T12:35:50.865Z,328.00
2022-11-29T12:36:50.879Z,315.00
2022-11-29T12:37:50.799Z,310.00
2022-11-29T12:38:50.842Z,332.00
2022-11-29T12:39:50.777Z,337.00
2022-11-29T12:40:50.814Z,341.00
2022-11-29T12:41:53.926Z,329.00
2022-11-29T12:42:50.736Z,302.00
2022-11-29T12:43:50.750Z,278.00
2022-11-29T12:44:50.726Z,273.00
2022-11-29T12:45:50.721Z,264.00
2022-11-29T12:47:02.092Z,264.00
2022-11-29T12:47:52.206Z,260.00
2022-11-29T12:48:50.696Z,271.00
2022-11-29T12:49:50.689Z,284.00
2022-11-29T12:50:50.671Z,247.00
2022-11-29T12:51:50.630Z,217.00
2022-11-29T12:52:50.656Z,248.00
2022-11-29T12:53:50.633Z,347.00
2022-11-29T12:54:50.631Z,394.00
2022-11-29T12:55:50.633Z,431.00
2022-11-29T12:56:50.593Z,451.00
2022-11-29T12:57:50.587Z,366.00
2022-11-29T12:58:50.571Z,297.00
2022-11-29T12:59:50.575Z,296.00
2022-11-29T13:00:50.572Z,475.00
2022-11-29T13:01:50.594Z,503.00
2022-11-29T13:02:50.643Z,539.00
2022-11-29T13:03:50.554Z,483.00
2022-11-29T13:04:55.037Z,383.00
2022-11-29T13:05:50.493Z,304.00
2022-11-29T13:06:50.492Z,523.00
2022-11-29T13:07:50.542Z,747.00
2022-11-29T13:08:50.463Z,619.00
2022-11-29T13:09:50.444Z,537.00
2022-11-29T13:10:50.451Z,458.00
2022-11-29T13:11:50.421Z,605.00
2022-11-29T13:12:50.453Z,724.00
2022-11-29T13:13:50.397Z,739.00
2022-11-29T13:14:50.472Z,644.00
2022-11-29T13:15:50.416Z,581.00
2022-11-29T13:16:50.443Z,522.00
2022-11-29T13:17:50.351Z,597.00
2022-11-29T13:18:50.421Z,580.00
2022-11-29T13:19:50.351Z,566.00
2022-11-29T13:20:50.338Z,544.00
2022-11-29T13:21:50.310Z,590.00
2022-11-29T13:22:50.338Z,641.00
2022-11-29T13:24:50.299Z,616.00
2022-11-29T13:25:50.298Z,504.00
2022-11-29T13:26:50.271Z,516.00
2022-11-29T13:27:50.245Z,552.00
2022-11-29T13:28:50.258Z,555.00
2022-11-29T13:29:50.245Z,509.00
2022-11-29T13:30:50.297Z,496.00
2022-11-29T13:31:50.205Z,465.00
2022-11-29T13:32:50.328Z,449.00
2022-11-29T13:33:50.179Z,489.00
2022-11-29T13:34:50.193Z,522.00
2022-11-29T13:35:50.179Z,518.00
2022-11-29T13:36:50.185Z,526.00
2022-11-29T13:37:54.927Z,510.00
2022-11-29T13:38:50.151Z,539.00
2022-11-29T13:39:50.171Z,505.00
2022-11-29T13:40:50.132Z,459.00
2022-11-29T13:41:50.172Z,403.00
2022-11-29T13:42:50.118Z,323.00
2022-11-29T13:43:50.110Z,301.00
2022-11-29T13:44:50.081Z,328.00
2022-11-29T13:45:50.063Z,345.00
2022-11-29T13:46:53.224Z,348.00
2022-11-29T13:47:50.120Z,364.00
2022-11-29T13:48:50.013Z,376.00
2022-11-29T13:49:50.029Z,364.00
2022-11-29T13:50:50.015Z,345.00
2022-11-29T13:51:49.997Z,339.00
2022-11-29T13:52:49.974Z,362.00
2022-11-29T13:53:50.031Z,375.00
2022-11-29T13:54:49.959Z,369.00
2022-11-29T13:55:49.949Z,374.00
2022-11-29T13:56:49.945Z,327.00
2022-11-29T13:58:15.021Z,305.00
2022-11-29T13:58:49.928Z,325.00
2022-11-29T13:59:49.930Z,329.00
2022-11-29T14:00:49.902Z,300.00
2022-11-29T14:01:49.904Z,273.00
2022-11-29T14:02:49.917Z,250.00
2022-11-29T14:03:49.878Z,241.00
2022-11-29T14:04:49.860Z,251.00
2022-11-29T14:05:49.839Z,268.00
2022-11-29T14:06:49.825Z,271.00
2022-11-29T14:07:49.873Z,251.00
2022-11-29T14:09:49.835Z,267.00
2022-11-29T14:10:49.791Z,270.00
2022-11-29T14:11:49.810Z,305.00
2022-11-29T14:12:49.753Z,349.00
2022-11-29T14:13:49.775Z,280.00
2022-11-29T14:14:49.765Z,238.00
2022-11-29T14:15:49.811Z,232.00
2022-11-29T14:16:49.738Z,245.00
2022-11-29T14:17:49.752Z,252.00
2022-11-29T14:18:49.690Z,244.00
2022-11-29T14:19:49.721Z,237.00
2022-11-29T14:20:49.677Z,229.00
2022-11-29T14:21:49.665Z,226.00
2022-11-29T14:22:49.665Z,278.00
2022-11-29T14:23:49.656Z,314.00
2022-11-29T14:24:49.625Z,318.00
2022-11-29T14:25:51.991Z,265.00
2022-11-29T14:26:49.603Z,236.00
2022-11-29T14:27:49.627Z,242.00
2022-11-29T14:28:49.583Z,277.00
2022-11-29T14:29:49.614Z,249.00
2022-11-29T14:30:49.561Z,267.00
2022-11-29T14:31:49.605Z,294.00
2022-11-29T14:32:49.566Z,296.00
2022-11-29T14:33:49.542Z,267.00
2022-11-29T14:34:49.517Z,225.00
2022-11-29T14:35:49.605Z,238.00
2022-11-29T14:36:49.494Z,247.00
2022-11-29T14:37:49.529Z,250.00
2022-11-29T14:38:49.483Z,212.00
2022-11-29T14:39:49.498Z,230.00
2022-11-29T14:40:49.458Z,246.00
2022-11-29T14:41:49.476Z,219.00
2022-11-29T14:42:49.454Z,173.00
2022-11-29T14:43:49.434Z,160.00
2022-11-29T14:44:49.432Z,177.00
2022-11-29T14:45:49.408Z,181.00
2022-11-29T14:46:49.439Z,162.00
2022-11-29T14:47:49.422Z,158.00
2022-11-29T14:48:49.362Z,161.00
2022-11-29T14:49:49.367Z,185.00
2022-11-29T14:50:49.351Z,205.00
2022-11-29T14:51:49.361Z,233.00
2022-11-29T14:52:49.327Z,244.00
2022-11-29T14:53:49.380Z,244.00
2022-11-29T14:54:54.004Z,229.00
2022-11-29T14:55:49.334Z,232.00
2022-11-29T14:56:49.275Z,229.00
2022-11-29T14:57:49.287Z,227.00
2022-11-29T14:58:49.290Z,213.00
2022-11-29T14:59:49.281Z,182.00
2022-11-29T15:00:49.275Z,172.00
2022-11-29T15:01:49.316Z,166.00
2022-11-29T15:02:49.274Z,148.00
2022-11-29T15:03:49.310Z,134.00
2022-11-29T15:04:49.194Z,119.00
2022-11-29T15:05:49.225Z,96.00
2022-11-29T15:06:52.974Z,87.00
2022-11-29T15:07:49.486Z,89.00
2022-11-29T15:08:49.159Z,93.00
2022-11-29T15:09:49.185Z,102.00
2022-11-29T15:10:49.130Z,100.00
2022-11-29T15:11:49.165Z,102.00
2022-11-29T15:12:49.104Z,99.00
2022-11-29T15:13:49.113Z,89.00
2022-11-29T15:14:49.087Z,93.00
2022-11-29T15:15:49.190Z,83.00
2022-11-29T15:16:49.098Z,82.00
2022-11-29T15:17:49.066Z,77.00
2022-11-29T15:18:49.037Z,70.00
2022-11-29T15:19:49.050Z,57.00
2022-11-29T15:20:49.035Z,50.00
2022-11-29T15:21:49.032Z,43.00
2022-11-29T15:22:49.012Z,41.00
2022-11-29T15:23:49.007Z,43.00
2022-11-29T15:24:48.977Z,41.00
2022-11-29T15:25:48.977Z,41.00
2022-11-29T15:26:48.958Z,37.00
2022-11-29T15:27:48.978Z,28.00
2022-11-29T15:28:48.939Z,27.00
2022-11-29T15:29:48.956Z,23.00
2022-11-29T15:30:48.910Z,20.00
2022-11-29T15:31:48.945Z,22.00
2022-11-29T15:32:48.905Z,25.00
2022-11-29T15:33:48.889Z,19.00
2022-11-29T15:34:49.060Z,21.00
2022-11-29T15:35:48.873Z,15.00
2022-11-29T15:36:48.863Z,14.00
2022-11-29T15:37:48.849Z,14.00
2022-11-29T15:38:48.845Z,12.00
2022-11-29T15:39:48.828Z,13.00
2022-11-29T15:40:48.800Z,8.00
2022-11-29T15:41:48.813Z,4.00
2022-11-29T15:42:48.785Z,2.00
2022-11-29T15:43:48.827Z,5.00
2022-11-29T15:44:49.094Z,6.00
2022-11-29T15:45:48.805Z,4.00
2022-11-29T15:46:48.736Z,5.00
2022-11-29T15:47:48.749Z,3.00
2022-11-29T15:48:48.718Z,2.00
2022-11-29T15:49:48.816Z,2.00
2022-11-29T15:50:48.713Z,1.00
2022-11-29T15:51:48.731Z,1.00
2022-11-29T15:52:48.677Z,2.00
2022-11-29T15:53:48.676Z,2.00
2022-11-29T15:54:48.990Z,0.00
2022-11-29T15:55:48.724Z,0.00
2022-11-29T15:56:48.625Z,1.00
2022-11-29T15:57:48.681Z,1.00
2022-11-29T15:58:48.637Z,1.00
2022-11-29T15:59:48.676Z,0.00
2022-11-29T16:00:48.691Z,0.00
2022-11-29T16:01:48.689Z,0.00
2022-11-29T16:02:48.651Z,0.00
2022-11-29T16:03:48.659Z,0.00
2022-11-29T16:04:49.304Z,0.00
2022-11-29T16:05:48.605Z,0.00
2022-11-29T16:06:48.592Z,0.00
2022-11-29T16:07:48.677Z,0.00
2022-11-29T16:08:48.557Z,0.00
2022-11-29T16:09:48.572Z,0.00
2022-11-29T16:10:48.574Z,0.00
2022-11-29T16:11:48.547Z,0.00
2022-11-29T16:12:48.507Z,0.00
2022-11-29T16:13:48.522Z,0.00
2022-11-29T16:14:48.495Z,0.00
2022-11-29T16:15:48.507Z,0.00
2022-11-29T16:16:48.528Z,0.00
2022-11-29T16:17:48.478Z,0.00
2022-11-29T16:18:48.451Z,0.00
2022-11-29T16:19:48.455Z,0.00
2022-11-29T16:20:48.439Z,0.00
2022-11-29T16:21:48.445Z,0.00
2022-11-29T16:22:48.413Z,0.00
2022-11-29T16:23:48.411Z,0.00
2022-11-29T16:24:48.580Z,0.00
2022-11-29T16:25:48.386Z,0.00
2022-11-29T16:26:48.429Z,0.00
2022-11-29T16:27:48.385Z,0.00
2022-11-29T16:28:48.374Z,0.00
2022-11-29T16:29:48.366Z,0.00
2022-11-29T16:30:48.318Z,0.00
2022-11-29T16:31:48.355Z,0.00
2022-11-29T16:32:48.309Z,0.00
2022-11-29T16:33:48.294Z,0.00
2022-11-29T16:34:48.600Z,0.00
2022-11-29T16:35:48.275Z,0.00
2022-11-29T16:36:48.298Z,0.00
2022-11-29T16:37:48.265Z,0.00
2022-11-29T16:38:48.230Z,0.00